Time;durP1;ratioP1;P1;durP2;ratioP2;P2;SDS_P1;SDS_P2;PMS_P1;PMS_P2;Temp;Humidity;BMP_temperature;BMP_pressure;BME280_temperature;BME280_humidity;BME280_pressure;Samples;Min_cycle;Max_cycle;Signal;HPM_P1;HPM_P2
2023/01/29 00:01:22;;;;;;;50.17;30.77;;;-3.10;98.20;;;;;;5044948;28;20492;-57
2023/01/29 00:03:50;;;;;;;50.13;29.97;;;-3.10;99.90;;;;;;5044092;28;20714;-57
2023/01/29 00:06:18;;;;;;;51.47;30.07;;;-3.00;99.90;;;;;;5045827;28;20237;-57
2023/01/29 00:08:48;;;;;;;51.10;28.93;;;-3.00;99.90;;;;;;5019861;28;20682;-57
2023/01/29 00:11:16;;;;;;;48.13;29.00;;;-3.10;99.90;;;;;;5046140;28;20187;-57
2023/01/29 00:13:43;;;;;;;47.30;28.20;;;-3.20;99.90;;;;;;5044744;28;20195;-59
2023/01/29 00:16:10;;;;;;;47.53;28.00;;;-3.30;99.90;;;;;;5046032;28;20648;-58
2023/01/29 00:18:38;;;;;;;53.37;28.73;;;-3.40;99.90;;;;;;5042582;28;20265;-59
2023/01/29 00:21:10;;;;;;;50.50;29.07;;;-3.60;99.90;;;;;;5019894;28;20207;-58
2023/01/29 00:23:37;;;;;;;49.13;29.47;;;-3.70;99.90;;;;;;5027392;28;20230;-58
2023/01/29 00:26:05;;;;;;;49.07;29.80;;;-3.70;99.90;;;;;;5047181;28;20208;-59
2023/01/29 00:28:32;;;;;;;51.10;28.27;;;-3.70;99.90;;;;;;5046235;28;20231;-59
2023/01/29 00:31:10;;;;;;;53.33;29.90;;;-3.70;99.90;;;;;;5021163;28;20739;-58
2023/01/29 00:33:38;;;;;;;54.50;31.23;;;-3.50;99.90;;;;;;5028432;28;20278;-58
2023/01/29 00:36:09;;;;;;;56.27;32.20;;;-3.30;99.90;;;;;;5047369;28;20219;-58
2023/01/29 00:38:37;;;;;;;101.67;52.70;;;-3.20;99.90;;;;;;5028602;28;20271;-59
2023/01/29 00:46:40;;;;;;;66.97;36.73;;;-3.60;99.90;;;;;;5046652;28;20295;-58
2023/01/29 00:49:07;;;;;;;67.50;36.40;;;-3.80;99.90;;;;;;5029276;28;20730;-59
2023/01/29 00:51:35;;;;;;;67.20;36.87;;;-3.80;99.90;;;;;;5046822;28;20208;-58
2023/01/29 00:54:05;;;;;;;62.83;36.20;;;-3.80;99.90;;;;;;5015213;28;20313;-58
2023/01/29 00:56:36;;;;;;;67.07;35.30;;;-3.90;99.90;;;;;;5046386;28;20187;-60
2023/01/29 00:59:03;;;;;;;61.90;36.00;;;-3.90;99.90;;;;;;5028628;28;20212;-58
2023/01/29 01:04:16;;;;;;;52.13;31.00;;;-3.60;99.90;;;;;;5029346;28;20253;-59
2023/01/29 01:06:43;;;;;;;56.03;32.27;;;-3.40;99.90;;;;;;5048292;28;20203;-58
2023/01/29 01:11:55;;;;;;;59.13;33.17;;;-3.50;99.90;;;;;;5020881;28;20310;-60
2023/01/29 01:14:22;;;;;;;61.97;33.20;;;-3.40;99.90;;;;;;5029065;28;20357;-59
2023/01/29 01:16:49;;;;;;;63.83;34.13;;;-3.40;99.90;;;;;;5048217;28;20222;-58
2023/01/29 01:19:16;;;;;;;59.90;34.37;;;-3.30;99.90;;;;;;5028176;28;20238;-58
2023/01/29 01:21:47;;;;;;;60.10;32.13;;;-3.10;99.90;;;;;;5031574;28;20601;-59
2023/01/29 01:24:14;;;;;;;53.67;30.17;;;-3.00;99.90;;;;;;5050673;28;20325;-59
2023/01/29 01:26:41;;;;;;;58.40;32.37;;;-2.90;99.90;;;;;;5031530;28;20199;-59
2023/01/29 01:29:08;;;;;;;57.03;31.63;;;-2.80;99.90;;;;;;5050479;28;20250;-58
2023/01/29 01:31:35;;;;;;;52.80;31.30;;;-2.70;99.90;;;;;;5051618;28;20204;-66
2023/01/29 01:34:02;;;;;;;53.90;30.77;;;-2.70;99.90;;;;;;5050018;28;20278;-65
2023/01/29 01:36:31;;;;;;;53.80;29.93;;;-2.70;98.40;;;;;;5030974;28;20199;-66
2023/01/29 01:38:58;;;;;;;55.93;31.33;;;-2.80;96.30;;;;;;5030928;28;20203;-66
2023/01/29 01:41:25;;;;;;;56.27;32.07;;;-2.80;99.90;;;;;;5017141;28;20298;-66
2023/01/29 01:43:58;;;;;;;58.33;32.03;;;-2.80;97.90;;;;;;5030658;28;20210;-66
2023/01/29 01:46:28;;;;;;;52.93;30.50;;;-2.90;99.90;;;;;;5049737;28;20241;-66
2023/01/29 01:49:06;;;;;;;50.00;29.13;;;-3.00;99.90;;;;;;5049727;28;20207;-66
2023/01/29 01:51:39;;;;;;;51.93;30.20;;;-3.00;99.90;;;;;;5030246;28;20207;-59
2023/01/29 01:54:10;;;;;;;51.07;30.17;;;-3.00;99.90;;;;;;5050322;28;20234;-66
2023/01/29 01:56:45;;;;;;;50.20;29.30;;;-3.00;99.90;;;;;;5030821;28;20296;-64
2023/01/29 01:59:15;;;;;;;56.50;29.87;;;-3.00;99.90;;;;;;5031380;28;20202;-65
2023/01/29 02:01:49;;;;;;;54.50;29.27;;;-3.10;99.90;;;;;;5054011;22;20224;31
2023/01/29 02:10:00;;;;;;;54.33;29.27;;;-3.40;99.90;;;;;;4999032;28;20237;-68
2023/01/29 02:12:31;;;;;;;53.93;30.90;;;-3.30;99.90;;;;;;4998929;28;20205;-67
2023/01/29 02:14:59;;;;;;;57.43;31.70;;;-3.00;99.90;;;;;;4982393;28;20197;-67
2023/01/29 02:17:26;;;;;;;59.17;32.20;;;-3.00;99.90;;;;;;4990157;28;20240;-72
2023/01/29 02:20:23;;;;;;;58.37;32.60;;;-2.90;99.90;;;;;;4967921;28;20201;-68
2023/01/29 02:22:54;;;;;;;59.90;32.73;;;-2.80;99.90;;;;;;5000132;28;20193;-69
2023/01/29 02:25:41;;;;;;;59.40;32.77;;;-2.70;99.90;;;;;;5000437;28;20201;-70
2023/01/29 02:28:23;;;;;;;63.17;33.10;;;-2.60;99.90;;;;;;4988534;28;20287;-69
2023/01/29 02:30:57;;;;;;;57.57;30.57;;;-2.50;94.40;;;;;;4999800;28;20640;-68
2023/01/29 02:33:39;;;;;;;57.20;30.20;;;-2.50;77.60;;;;;;4999619;28;20192;-67
2023/01/29 02:36:23;;;;;;;57.37;32.63;;;-2.50;58.00;;;;;;4991063;28;20211;-68
2023/01/29 02:39:15;;;;;;;56.77;31.50;;;-2.40;38.70;;;;;;5000389;28;20200;-69
2023/01/29 02:41:45;;;;;;;55.50;29.60;;;-2.40;29.40;;;;;;4982137;28;20408;-70
2023/01/29 02:44:22;;;;;;;60.93;31.47;;;-2.40;22.50;;;;;;4999285;28;20553;-70
2023/01/29 02:47:08;;;;;;;57.73;33.07;;;-2.50;14.70;;;;;;4989515;28;20200;-70
2023/01/29 02:50:13;;;;;;;58.23;33.07;;;-2.50;13.40;;;;;;4997939;28;20268;-70
2023/01/29 02:52:58;;;;;;;54.77;30.20;;;-2.50;20.10;;;;;;4980198;28;20711;-70
2023/01/29 02:55:36;;;;;;;54.17;29.87;;;-2.40;17.70;;;;;;4998397;28;20476;-70
2023/01/29 02:58:16;;;;;;;53.17;30.83;;;-2.30;5.00;;;;;;4997654;28;20200;-70
2023/01/29 03:00:46;;;;;;;57.13;31.83;;;-2.20;1.00;;;;;;4980355;28;20218;-71
2023/01/29 03:03:20;;;;;;;53.30;30.97;;;-2.20;1.00;;;;;;4995422;28;20602;-70
2023/01/29 03:06:01;;;;;;;55.53;31.93;;;-2.10;1.00;;;;;;4973593;28;20224;-69
2023/01/29 03:08:48;;;;;;;57.93;31.47;;;-2.10;1.00;;;;;;4988376;28;20229;-71
2023/01/29 03:11:16;;;;;;;55.97;31.83;;;-1.00;1.00;;;;;;4972104;28;20221;-69
2023/01/29 03:13:56;;;;;;;57.57;32.43;;;-2.10;1.00;;;;;;4971554;28;20763;-69
2023/01/29 03:16:44;;;;;;;54.30;30.40;;;-2.10;1.00;;;;;;4973806;28;20259;-67
2023/01/29 03:19:26;;;;;;;52.87;30.30;;;-2.10;1.00;;;;;;4998127;28;20208;-70
2023/01/29 03:22:00;;;;;;;61.23;32.07;;;-2.10;1.00;;;;;;4981825;28;20269;-69
2023/01/29 03:33:34;;;;;;;52.33;30.63;;;-2.20;1.00;;;;;;4997019;28;20292;-63
2023/01/29 03:36:09;;;;;;;58.23;32.00;;;-2.20;1.00;;;;;;4981156;28;20228;-62
2023/01/29 03:38:36;;;;;;;58.83;31.90;;;-2.10;1.00;;;;;;4972336;28;20220;-62
2023/01/29 03:41:27;;;;;;;56.03;31.73;;;-2.10;1.00;;;;;;4981700;28;20210;-61
2023/01/29 03:44:25;;;;;;;58.07;31.43;;;-2.00;1.00;;;;;;4981656;28;20216;-60
2023/01/29 03:47:15;;;;;;;61.47;32.57;;;-2.00;1.00;;;;;;4973675;28;20330;-62
2023/01/29 03:50:00;;;;;;;60.17;32.57;;;-1.90;1.00;;;;;;5004496;28;20317;-59
2023/01/29 03:52:58;;;;;;;55.07;31.37;;;-1.90;1.00;;;;;;4980944;28;20260;-63
2023/01/29 03:55:37;;;;;;;61.57;31.60;;;-1.90;1.00;;;;;;4977510;28;20232;-63
2023/01/29 03:58:26;;;;;;;55.90;31.90;;;-1.90;1.00;;;;;;4998733;28;20845;-61
2023/01/29 04:01:00;;;;;;;56.40;32.33;;;-1.90;1.00;;;;;;4981688;28;20247;-62
2023/01/29 04:03:36;;;;;;;70.13;32.80;;;-1.80;1.00;;;;;;5004041;28;20264;-63
2023/01/29 04:06:21;;;;;;;56.60;30.73;;;-1.80;1.00;;;;;;4981200;28;20205;-59
2023/01/29 04:09:10;;;;;;;54.13;30.57;;;-1.70;1.00;;;;;;4988888;28;20234;-59
2023/01/29 04:11:46;;;;;;;52.03;30.77;;;-1.70;1.00;;;;;;4997819;28;20618;-60
2023/01/29 04:14:15;;;;;;;57.10;31.47;;;-1.60;1.00;;;;;;4996291;28;20301;-60
2023/01/29 04:16:47;;;;;;;57.47;31.20;;;-1.60;1.00;;;;;;4965119;28;20201;-60
2023/01/29 04:19:35;;;;;;;55.13;33.00;;;-1.60;1.00;;;;;;4998504;28;20928;-61
2023/01/29 04:22:19;;;;;;;60.07;36.77;;;-1.60;1.00;;;;;;4980986;28;20245;-60
2023/01/29 04:24:47;;;;;;;61.50;34.10;;;-1.60;1.00;;;;;;5005254;28;20627;-61
2023/01/29 04:27:38;;;;;;;59.10;34.27;;;-1.60;1.00;;;;;;4996421;28;20214;-60
2023/01/29 04:30:29;;;;;;;52.63;31.60;;;-1.60;1.00;;;;;;4998222;28;20256;-61
2023/01/29 04:33:11;;;;;;;56.07;32.87;;;-1.60;1.00;;;;;;4988301;28;20223;-61
2023/01/29 04:36:06;;;;;;;58.37;31.40;;;-1.50;1.00;;;;;;4996900;28;20201;-61
2023/01/29 04:38:48;;;;;;;54.80;31.20;;;-1.50;1.00;;;;;;4998127;28;20704;-61
2023/01/29 04:41:53;;;;;;;58.03;32.50;;;-1.60;1.00;;;;;;4996763;28;20222;-62
2023/01/29 04:44:25;;;;;;;52.67;31.07;;;-1.60;1.00;;;;;;4998332;28;20279;-63
2023/01/29 04:47:13;;;;;;;58.57;33.27;;;-1.60;1.00;;;;;;4998004;28;20216;-63
2023/01/29 04:49:44;;;;;;;56.73;32.77;;;-1.50;1.00;;;;;;4997104;28;20200;-63
2023/01/29 04:52:16;;;;;;;56.17;30.47;;;-1.50;1.00;;;;;;4979689;28;20315;-62
2023/01/29 04:55:06;;;;;;;55.47;31.10;;;-1.50;1.00;;;;;;4997692;28;20196;-63
2023/01/29 04:58:02;;;;;;;55.90;31.60;;;-1.50;1.00;;;;;;4997367;28;20201;-64
2023/01/29 05:00:36;;;;;;;55.73;32.47;;;-1.50;1.00;;;;;;4987501;28;20259;-63
2023/01/29 05:03:08;;;;;;;60.40;33.33;;;-1.40;1.00;;;;;;4998613;28;20241;-63
2023/01/29 05:05:36;;;;;;;57.70;32.87;;;-1.40;1.00;;;;;;5004269;28;20199;-61
2023/01/29 05:08:04;;;;;;;57.33;33.70;;;-1.40;1.00;;;;;;4998134;28;20607;-60
2023/01/29 05:10:32;;;;;;;56.57;33.20;;;-1.40;1.00;;;;;;4989592;28;20229;-61
2023/01/29 05:13:01;;;;;;;60.73;34.20;;;-1.30;1.00;;;;;;4999547;28;20573;-61
2023/01/29 05:15:37;;;;;;;60.00;33.77;;;-1.30;1.00;;;;;;5006629;28;20211;-61
2023/01/29 05:18:07;;;;;;;53.00;30.30;;;-1.40;1.00;;;;;;4965250;28;20743;-62
2023/01/29 05:20:40;;;;;;;58.57;32.30;;;-1.30;1.00;;;;;;4999787;28;20608;-62
2023/01/29 05:23:20;;;;;;;64.13;34.43;;;-1.30;1.00;;;;;;4998497;28;20226;-61
2023/01/29 05:25:48;;;;;;;59.83;33.47;;;-1.30;1.00;;;;;;4981295;28;20196;-62
2023/01/29 05:28:16;;;;;;;57.33;33.67;;;-1.30;1.00;;;;;;5005163;28;20213;-61
2023/01/29 05:30:51;;;;;;;57.53;32.80;;;-1.30;1.00;;;;;;4998028;28;20554;-67
2023/01/29 05:33:28;;;;;;;61.43;33.97;;;-1.30;1.00;;;;;;4972956;28;20562;-60
2023/01/29 05:35:57;;;;;;;57.83;31.93;;;-1.30;1.00;;;;;;4998655;28;20211;-61
2023/01/29 05:38:24;;;;;;;56.60;33.60;;;-1.30;1.00;;;;;;4992272;28;20319;-61
2023/01/29 05:40:51;;;;;;;57.23;33.27;;;-1.20;1.00;;;;;;5000474;28;20205;-60
2023/01/29 05:43:23;;;;;;;60.50;35.50;;;-1.20;1.00;;;;;;4962405;28;20197;-61
2023/01/29 05:45:56;;;;;;;62.60;34.63;;;-1.20;1.00;;;;;;5004772;28;20556;-60
2023/01/29 05:48:23;;;;;;;55.93;33.20;;;-1.20;1.00;;;;;;4996508;28;20280;-60
2023/01/29 05:50:50;;;;;;;60.43;34.87;;;-1.10;1.00;;;;;;4996111;28;20224;-60
2023/01/29 05:53:18;;;;;;;61.50;35.00;;;-1.20;1.00;;;;;;4995669;28;20201;-61
2023/01/29 05:55:48;;;;;;;56.33;33.00;;;-1.10;1.00;;;;;;4996961;28;20200;-61
2023/01/29 05:58:15;;;;;;;61.00;34.83;;;-1.10;1.00;;;;;;4978356;28;20284;-62
2023/01/29 06:00:42;;;;;;;62.17;35.10;;;-1.10;1.00;;;;;;4987259;28;20248;-61
2023/01/29 06:03:09;;;;;;;57.40;32.97;;;-1.10;1.00;;;;;;4999572;28;20711;-62
2023/01/29 06:05:39;;;;;;;63.70;34.90;;;-1.10;1.00;;;;;;4977311;28;20198;-62
2023/01/29 06:08:07;;;;;;;62.83;35.83;;;-1.10;1.00;;;;;;4979949;28;20669;-63
2023/01/29 06:10:34;;;;;;;61.20;35.23;;;-1.10;1.00;;;;;;4981124;28;20826;-61
2023/01/29 06:13:01;;;;;;;60.33;34.40;;;-1.00;1.00;;;;;;4980292;28;20197;-61
2023/01/29 06:15:28;;;;;;;59.80;35.90;;;-1.00;1.00;;;;;;4980380;28;20909;-61
2023/01/29 06:17:56;;;;;;;68.47;36.30;;;-1.00;1.00;;;;;;4976500;28;20233;-64
2023/01/29 06:20:23;;;;;;;61.30;35.33;;;-1.00;1.00;;;;;;4980575;28;20241;-62
2023/01/29 06:22:50;;;;;;;60.63;34.63;;;-1.00;1.00;;;;;;4980259;28;20281;-61
2023/01/29 06:25:17;;;;;;;63.80;37.20;;;-0.90;1.00;;;;;;4980792;28;20240;-61
2023/01/29 06:27:44;;;;;;;63.87;36.53;;;-0.90;1.00;;;;;;4991217;28;20309;-61
2023/01/29 06:30:11;;;;;;;61.70;35.17;;;-0.90;1.00;;;;;;4981168;28;20213;-62
2023/01/29 06:32:38;;;;;;;63.43;35.67;;;-0.90;1.00;;;;;;4979887;28;20198;-61
2023/01/29 06:35:06;;;;;;;62.57;35.80;;;-0.90;1.00;;;;;;4981367;28;20210;-62
2023/01/29 06:37:33;;;;;;;65.33;37.40;;;-0.90;1.00;;;;;;4980391;28;20201;-60
2023/01/29 06:40:00;;;;;;;67.10;36.30;;;-0.90;1.00;;;;;;4981182;28;20653;-60
2023/01/29 06:42:27;;;;;;;64.73;35.87;;;-0.80;1.00;;;;;;4987081;28;20665;-61
2023/01/29 06:44:55;;;;;;;68.90;37.43;;;-0.80;1.00;;;;;;4981115;28;20252;-62
2023/01/29 06:47:26;;;;;;;69.87;39.20;;;-0.80;1.00;;;;;;4973339;28;20261;-61
2023/01/29 06:49:53;;;;;;;61.00;35.43;;;-0.80;1.00;;;;;;4975457;28;20620;-61
2023/01/29 06:52:20;;;;;;;70.50;38.17;;;-0.80;1.00;;;;;;4980494;28;20205;-62
2023/01/29 06:54:47;;;;;;;69.83;37.40;;;-0.80;1.00;;;;;;4975398;28;20255;-62
2023/01/29 06:57:14;;;;;;;65.57;37.87;;;-0.80;1.00;;;;;;4980544;28;20186;-61
2023/01/29 06:59:41;;;;;;;65.63;38.50;;;-0.80;1.00;;;;;;4989172;28;20721;-63
2023/01/29 07:02:08;;;;;;;63.07;36.60;;;-0.70;1.00;;;;;;4983715;28;20257;-62
2023/01/29 07:04:36;;;;;;;66.23;37.47;;;-0.70;1.00;;;;;;5000476;28;20251;-60
2023/01/29 07:07:04;;;;;;;67.70;37.50;;;-0.80;1.00;;;;;;5000728;28;20232;-62
2023/01/29 07:09:31;;;;;;;62.90;35.50;;;-0.80;1.00;;;;;;4999738;28;20232;-61
2023/01/29 07:11:58;;;;;;;65.17;38.13;;;-0.70;1.00;;;;;;4999558;28;20252;-61
2023/01/29 07:14:25;;;;;;;63.27;36.43;;;-0.70;1.00;;;;;;5001063;28;20280;-60
2023/01/29 07:16:52;;;;;;;62.83;35.10;;;-0.70;1.00;;;;;;4997561;28;20229;-61
2023/01/29 07:19:19;;;;;;;77.00;41.20;;;-0.70;1.00;;;;;;4998236;28;20296;-62
2023/01/29 07:21:45;;;;;;;68.57;37.10;;;-0.70;1.00;;;;;;4995825;28;20702;-61
2023/01/29 07:24:12;;;;;;;63.77;35.53;;;-0.20;1.00;;;;;;4997945;28;20720;-60
2023/01/29 07:26:39;;;;;;;68.67;35.20;;;-0.70;1.00;;;;;;4992207;28;20210;-61
2023/01/29 07:29:07;;;;;;;64.70;34.90;;;-0.60;1.00;;;;;;4997279;28;20580;-61
2023/01/29 07:31:34;;;;;;;62.73;35.30;;;-0.60;1.00;;;;;;4999225;28;20260;-61
2023/01/29 07:34:01;;;;;;;69.10;37.57;;;-0.70;1.00;;;;;;4998884;28;20224;-61
2023/01/29 07:36:28;;;;;;;63.17;35.40;;;-0.70;1.00;;;;;;4978253;28;20198;-62
2023/01/29 07:38:55;;;;;;;61.93;34.17;;;-0.70;1.00;;;;;;4996408;28;20197;-60
2023/01/29 07:41:22;;;;;;;68.27;38.57;;;-0.70;1.00;;;;;;4999501;28;20208;-62
2023/01/29 07:43:50;;;;;;;66.27;37.20;;;-0.60;1.00;;;;;;4999937;28;20630;-60
2023/01/29 07:46:17;;;;;;;63.93;35.43;;;-0.60;1.00;;;;;;4998502;28;20265;-61
2023/01/29 07:48:44;;;;;;;66.10;36.70;;;-0.50;1.00;;;;;;4992576;28;20306;-63
2023/01/29 07:51:11;;;;;;;71.40;40.60;;;-0.50;1.00;;;;;;4995793;28;20226;-61
2023/01/29 07:53:38;;;;;;;67.60;38.97;;;-0.50;1.00;;;;;;4997831;28;20190;-61
2023/01/29 07:56:05;;;;;;;66.90;38.37;;;-0.50;1.00;;;;;;4978909;28;20225;-61
2023/01/29 07:58:32;;;;;;;62.90;37.77;;;-0.60;1.00;;;;;;4992696;28;20244;-60
2023/01/29 08:01:06;;;;;;;66.60;37.47;;;-0.60;1.00;;;;;;4979097;28;20210;-61
2023/01/29 08:03:33;;;;;;;61.20;34.90;;;-0.50;1.00;;;;;;4986152;28;20237;-61
2023/01/29 08:06:01;;;;;;;58.87;33.60;;;-0.40;1.00;;;;;;4993586;28;20232;-61
2023/01/29 08:08:28;;;;;;;58.07;33.17;;;-0.30;1.00;;;;;;4990568;28;20280;-62
2023/01/29 08:10:55;;;;;;;60.83;35.50;;;-0.30;1.00;;;;;;4997920;28;20294;-63
2023/01/29 08:13:22;;;;;;;63.20;37.43;;;-0.30;1.00;;;;;;4983885;28;20268;-60
2023/01/29 08:15:49;;;;;;;61.40;36.20;;;-0.20;1.00;;;;;;4994440;28;20706;-61
2023/01/29 08:18:16;;;;;;;74.80;41.93;;;-0.30;1.00;;;;;;4996275;28;20211;-61
2023/01/29 08:20:43;;;;;;;87.13;48.80;;;-0.20;1.00;;;;;;4946162;28;20681;-61
2023/01/29 08:23:15;;;;;;;58.67;35.80;;;-0.20;1.00;;;;;;4997102;28;20861;-61
2023/01/29 08:25:42;;;;;;;58.27;34.20;;;-0.20;1.00;;;;;;4999933;28;20560;-63
2023/01/29 08:28:10;;;;;;;64.77;36.73;;;-0.20;1.00;;;;;;4996261;28;20205;-60
2023/01/29 08:30:37;;;;;;;60.47;33.97;;;-0.20;1.00;;;;;;4997752;28;20211;-62
2023/01/29 08:33:04;;;;;;;63.60;37.13;;;-0.20;1.00;;;;;;4996416;28;20312;-60
2023/01/29 08:35:31;;;;;;;70.23;42.27;;;-0.20;1.00;;;;;;4993263;28;20228;-61
2023/01/29 08:38:02;;;;;;;57.77;33.47;;;-0.20;1.00;;;;;;4987713;28;20193;-61
2023/01/29 08:40:31;;;;;;;60.90;36.03;;;-0.10;1.00;;;;;;4992215;28;20209;-62
2023/01/29 08:43:02;;;;;;;59.87;33.80;;;-0.10;1.00;;;;;;4994022;28;20548;-61
2023/01/29 08:45:34;;;;;;;58.27;32.47;;;0.00;1.00;;;;;;4985537;28;20558;-64
2023/01/29 08:48:01;;;;;;;58.60;33.57;;;0.10;1.00;;;;;;4996194;28;20215;-64
2023/01/29 08:50:33;;;;;;;60.77;34.27;;;0.10;1.00;;;;;;4997728;28;20204;-66
2023/01/29 08:53:03;;;;;;;58.87;34.67;;;0.10;1.00;;;;;;4997827;28;20197;-63
2023/01/29 08:55:30;;;;;;;55.73;31.03;;;0.10;1.00;;;;;;4983573;28;20300;-64
2023/01/29 08:57:57;;;;;;;61.03;33.73;;;0.20;1.00;;;;;;4986580;28;20206;-63
2023/01/29 09:00:24;;;;;;;56.17;32.07;;;0.20;1.00;;;;;;4976012;28;20309;-61
2023/01/29 09:02:51;;;;;;;58.57;32.63;;;0.20;1.00;;;;;;4992046;28;20226;-63
2023/01/29 09:05:17;;;;;;;55.10;30.23;;;0.20;1.00;;;;;;4996183;28;20197;-60
2023/01/29 09:07:45;;;;;;;55.53;33.23;;;0.30;1.00;;;;;;4997474;28;20276;-60
2023/01/29 09:10:12;;;;;;;62.00;36.43;;;0.30;1.00;;;;;;5002545;28;20220;-60
2023/01/29 09:12:39;;;;;;;54.93;31.93;;;0.30;1.00;;;;;;4996541;28;20208;-62
2023/01/29 09:15:07;;;;;;;56.90;32.37;;;0.30;1.00;;;;;;4995001;28;20194;-61
2023/01/29 09:17:34;;;;;;;57.33;33.23;;;0.40;1.00;;;;;;4996739;28;20613;-60
2023/01/29 09:20:01;;;;;;;54.90;32.47;;;0.40;1.00;;;;;;4996282;28;20200;-61
2023/01/29 09:22:28;;;;;;;55.40;32.90;;;0.50;1.00;;;;;;4992466;28;20202;-60
2023/01/29 09:24:55;;;;;;;53.17;30.90;;;0.50;1.00;;;;;;4990856;28;20196;-59
2023/01/29 09:27:22;;;;;;;47.90;28.30;;;0.70;1.00;;;;;;4998433;28;20224;-61
2023/01/29 09:29:49;;;;;;;55.10;30.90;;;0.80;1.00;;;;;;4998503;28;20631;-61
2023/01/29 09:32:18;;;;;;;53.83;30.10;;;1.00;1.00;;;;;;4995119;28;20210;-64
2023/01/29 09:35:05;;;;;;;55.37;30.97;;;1.00;1.00;;;;;;4997546;28;20537;-60
2023/01/29 09:37:32;;;;;;;56.80;31.90;;;1.00;1.00;;;;;;4976950;28;20233;-70
2023/01/29 09:39:59;;;;;;;54.40;31.97;;;1.20;1.00;;;;;;4988790;28;20325;-69
2023/01/29 09:42:28;;;;;;;55.93;31.23;;;1.30;1.00;;;;;;4974552;28;20186;-69
2023/01/29 09:45:13;;;;;;;55.97;30.57;;;1.30;1.00;;;;;;4988094;28;20308;-71
2023/01/29 09:47:41;;;;;;;49.87;30.27;;;1.30;1.00;;;;;;4980573;28;20323;-69
2023/01/29 09:50:22;;;;;;;52.17;30.40;;;1.10;1.00;;;;;;4995811;28;20209;-70
2023/01/29 09:53:03;;;;;;;51.17;29.40;;;1.00;1.00;;;;;;5001791;28;20687;-68
2023/01/29 09:55:39;;;;;;;48.60;28.23;;;1.00;1.00;;;;;;4995834;28;20196;-68
2023/01/29 09:58:19;;;;;;;49.43;27.87;;;1.10;1.00;;;;;;4997933;28;20596;-68
2023/01/29 10:00:56;;;;;;;51.27;28.63;;;1.20;1.00;;;;;;5001834;28;20596;-68
2023/01/29 10:03:49;;;;;;;49.87;29.63;;;1.30;1.00;;;;;;4980052;28;20296;-67
2023/01/29 10:06:41;;;;;;;47.93;27.80;;;1.30;1.00;;;;;;4973574;28;20296;-68
2023/01/29 10:09:19;;;;;;;49.43;27.60;;;1.30;1.00;;;;;;4997938;28;20247;-69
2023/01/29 10:12:08;;;;;;;49.37;28.63;;;1.40;1.00;;;;;;4998757;28;20576;-68
2023/01/29 10:14:49;;;;;;;49.93;29.13;;;1.40;1.00;;;;;;4993050;28;20660;-69
2023/01/29 10:17:44;;;;;;;48.50;27.97;;;1.40;1.00;;;;;;4998565;28;20220;-62
2023/01/29 10:20:17;;;;;;;47.27;30.07;;;1.50;1.00;;;;;;4999580;28;20662;-62
2023/01/29 10:22:51;;;;;;;51.93;30.07;;;1.60;1.00;;;;;;4998331;28;20625;-60
2023/01/29 10:25:20;;;;;;;49.63;30.97;;;1.70;1.00;;;;;;4999823;28;20200;-63
2023/01/29 10:27:55;;;;;;;47.13;27.40;;;1.70;1.00;;;;;;4996322;28;20598;-61
2023/01/29 10:30:37;;;;;;;48.23;29.20;;;1.60;1.00;;;;;;4991960;28;20313;-59
2023/01/29 10:33:08;;;;;;;50.80;29.70;;;1.80;1.00;;;;;;4996016;28;20303;-61
2023/01/29 10:35:40;;;;;;;46.60;28.77;;;1.80;1.00;;;;;;5000070;28;20189;-61
2023/01/29 10:38:26;;;;;;;46.63;28.47;;;1.70;1.00;;;;;;4973287;28;20233;-60
2023/01/29 10:41:12;;;;;;;46.20;27.37;;;1.60;1.00;;;;;;4977718;28;20191;-61
2023/01/29 10:44:06;;;;;;;46.37;27.63;;;1.50;1.00;;;;;;4992619;28;20193;-62
2023/01/29 10:46:58;;;;;;;52.60;28.87;;;1.50;1.00;;;;;;4999299;28;20568;-60
2023/01/29 10:49:31;;;;;;;44.43;25.50;;;1.40;1.00;;;;;;4979166;28;20214;-60
2023/01/29 10:52:16;;;;;;;43.87;27.40;;;1.40;1.00;;;;;;4995659;28;20599;-62
2023/01/29 10:54:59;;;;;;;50.73;28.23;;;1.40;1.00;;;;;;4979283;28;20710;-61
2023/01/29 10:57:44;;;;;;;50.70;27.47;;;1.50;1.00;;;;;;4998490;28;20201;-62
2023/01/29 11:00:23;;;;;;;45.83;26.90;;;1.60;1.00;;;;;;4999653;28;20352;-61
2023/01/29 11:02:51;;;;;;;50.97;28.90;;;1.70;1.00;;;;;;4993411;28;20242;-59
2023/01/29 11:05:29;;;;;;;45.30;27.53;;;1.80;1.00;;;;;;4998513;28;20211;-61
2023/01/29 11:08:09;;;;;;;46.20;27.07;;;1.90;1.00;;;;;;4980871;28;20654;-64
2023/01/29 11:10:46;;;;;;;43.77;25.87;;;2.00;1.00;;;;;;4999027;28;20276;-63
2023/01/29 11:13:14;;;;;;;45.70;26.80;;;1.90;1.00;;;;;;4999944;28;20569;-62
2023/01/29 11:15:42;;;;;;;47.00;27.53;;;1.90;1.00;;;;;;4999933;28;20279;-62
2023/01/29 11:18:14;;;;;;;47.67;28.03;;;1.90;1.00;;;;;;4998446;28;20662;-63
2023/01/29 11:20:45;;;;;;;87.07;53.47;;;2.00;1.00;;;;;;4998360;28;20357;-61
2023/01/29 11:23:38;;;;;;;46.80;27.77;;;2.00;1.00;;;;;;4997981;28;20842;-61
2023/01/29 11:26:09;;;;;;;58.07;31.97;;;1.90;1.00;;;;;;4997131;28;20693;-70
2023/01/29 11:28:41;;;;;;;48.97;28.93;;;1.90;1.00;;;;;;4997629;28;20253;-68
2023/01/29 11:31:34;;;;;;;45.63;27.87;;;1.90;1.00;;;;;;4981256;28;20260;-70
2023/01/29 11:34:22;;;;;;;51.40;31.47;;;1.90;1.00;;;;;;4999151;28;20197;-70
2023/01/29 11:37:15;;;;;;;48.80;28.90;;;2.00;1.00;;;;;;4999514;28;20216;-71
2023/01/29 11:39:45;;;;;;;52.90;29.70;;;2.10;1.00;;;;;;4997494;28;20201;-64
2023/01/29 11:42:20;;;;;;;48.67;28.87;;;2.10;1.00;;;;;;4997671;28;20229;-63
2023/01/29 11:44:48;;;;;;;45.30;27.63;;;2.20;1.00;;;;;;4989481;28;20215;-61
2023/01/29 11:47:23;;;;;;;50.43;30.33;;;2.10;1.00;;;;;;4998466;28;20205;-62
2023/01/29 11:49:53;;;;;;;50.83;30.30;;;2.20;1.00;;;;;;4998704;28;20199;-62
2023/01/29 11:52:32;;;;;;;48.57;30.03;;;2.30;1.00;;;;;;4999137;28;20308;-68
2023/01/29 11:55:04;;;;;;;47.67;29.53;;;2.30;1.00;;;;;;4997868;28;20189;-61
2023/01/29 11:57:36;;;;;;;49.90;30.20;;;2.30;1.00;;;;;;4999067;28;20203;-62
2023/01/29 12:00:23;;;;;;;46.13;29.40;;;2.20;1.00;;;;;;5004817;28;20240;-60
2023/01/29 12:02:56;;;;;;;48.80;29.17;;;2.20;1.00;;;;;;4998225;28;20236;-60
2023/01/29 12:05:25;;;;;;;50.53;28.47;;;2.20;1.00;;;;;;4997372;28;20194;-60
2023/01/29 12:07:55;;;;;;;44.90;28.07;;;2.20;1.00;;;;;;4998250;28;20660;-62
2023/01/29 12:10:34;;;;;;;59.87;36.33;;;2.30;1.00;;;;;;4998300;28;20560;-62
2023/01/29 12:13:18;;;;;;;43.40;27.97;;;2.20;1.00;;;;;;4997967;28;20217;-64
2023/01/29 12:15:46;;;;;;;55.47;29.67;;;2.20;1.00;;;;;;4980704;28;20202;-62
2023/01/29 12:18:38;;;;;;;50.23;30.27;;;2.10;1.00;;;;;;4966344;28;20235;-62
2023/01/29 12:21:11;;;;;;;52.43;30.33;;;2.20;1.00;;;;;;4998001;28;20221;-61
2023/01/29 12:23:52;;;;;;;50.77;31.13;;;2.10;1.00;;;;;;4979938;28;20227;-61
2023/01/29 12:26:34;;;;;;;50.80;28.73;;;2.20;1.00;;;;;;4997691;28;20232;-60
2023/01/29 12:29:08;;;;;;;48.90;28.57;;;2.20;1.00;;;;;;4998161;28;20200;-60
2023/01/29 12:31:58;;;;;;;47.87;30.07;;;2.20;1.00;;;;;;4997767;28;20217;-61
2023/01/29 12:35:09;;;;;;;45.30;28.97;;;2.20;1.00;;;;;;4978103;28;20295;-61
2023/01/29 12:38:32;;;;;;;44.03;27.47;;;2.20;1.00;;;;;;4922025;29;20242;-62
2023/01/29 12:41:05;;;;;;;46.73;26.60;;;2.20;1.00;;;;;;4863550;29;20323;-63
2023/01/29 12:43:51;;;;;;;43.47;29.37;;;2.10;1.00;;;;;;4903854;29;20268;-61
2023/01/29 12:46:26;;;;;;;48.10;29.37;;;2.20;1.00;;;;;;4963983;28;20275;-62
2023/01/29 12:48:56;;;;;;;43.17;26.97;;;2.30;1.00;;;;;;4977388;28;20185;-62
2023/01/29 12:51:30;;;;;;;42.90;28.83;;;2.30;1.00;;;;;;4979100;28;20665;-62
2023/01/29 12:54:06;;;;;;;44.43;26.80;;;2.30;1.00;;;;;;4989397;28;20567;-63
2023/01/29 12:56:45;;;;;;;42.77;26.90;;;2.30;1.00;;;;;;4997057;28;20394;-65
2023/01/29 12:59:48;;;;;;;47.93;28.43;;;2.20;1.00;;;;;;4994190;28;20739;-62
2023/01/29 13:02:37;;;;;;;44.00;27.47;;;2.30;1.00;;;;;;4996227;28;20244;-62
2023/01/29 13:05:22;;;;;;;39.83;25.00;;;2.30;1.00;;;;;;4994824;28;20268;-64
2023/01/29 13:08:15;;;;;;;41.17;25.43;;;2.40;1.00;;;;;;4998067;28;20208;-61
2023/01/29 13:10:46;;;;;;;35.00;23.70;;;2.40;1.00;;;;;;4972206;28;20205;-62
2023/01/29 13:13:23;;;;;;;34.40;23.00;;;2.40;1.00;;;;;;4975117;28;20203;-62
2023/01/29 13:15:51;;;;;;;39.03;23.93;;;2.30;1.00;;;;;;4962639;28;20287;-64
2023/01/29 13:18:37;;;;;;;37.27;23.87;;;2.30;1.00;;;;;;4995183;28;20201;-61
2023/01/29 13:21:04;;;;;;;44.93;25.37;;;2.30;1.00;;;;;;4996244;28;20186;-61
2023/01/29 13:23:36;;;;;;;40.77;24.67;;;2.20;1.00;;;;;;4985900;28;20300;-62
2023/01/29 13:26:04;;;;;;;40.40;25.57;;;2.20;1.00;;;;;;4979320;28;20671;-61
2023/01/29 13:28:32;;;;;;;43.20;26.33;;;2.30;1.00;;;;;;4978395;28;20259;-61
2023/01/29 13:31:26;;;;;;;40.77;26.57;;;2.30;1.00;;;;;;4996333;28;20704;-61
2023/01/29 13:33:53;;;;;;;38.97;25.23;;;2.30;1.00;;;;;;4995976;28;20300;-62
2023/01/29 13:36:29;;;;;;;39.43;24.90;;;2.30;1.00;;;;;;4996401;28;20656;-62
2023/01/29 13:39:07;;;;;;;41.93;24.93;;;2.30;1.00;;;;;;4994263;28;20209;-64